CST,Max TemperatureF,Mean TemperatureF,Min TemperatureF,Max Dew PointF,MeanDew PointF,Min DewpointF,Max Humidity, Mean Humidity, Min Humidity, Max Sea Level PressureIn, Mean Sea Level PressureIn, Min Sea Level PressureIn, Max VisibilityMiles, Mean VisibilityMiles, Min VisibilityMiles, Max Wind SpeedMPH, Mean Wind SpeedMPH, Max Gust SpeedMPH,PrecipitationIn, CloudCover, Events, WindDirDegrees
2013-1-1,10,2,-6,2,-3,-9,87,77,66,30.36,30.29,30.20,10,10,10,12,5,14,0.00,0,,275
2013-1-2,29,16,2,25,14,-2,92,83,73,30.19,30.10,30.01,10,8,4,17,9,20,T,5,Snow,235
2013-1-3,27,16,5,22,10,2,88,78,67,30.40,30.29,30.12,10,10,10,22,13,26,0.00,4,,290
2013-1-4,29,19,8,20,15,7,92,81,69,30.30,30.23,30.19,10,10,10,20,10,24,0.00,0,,235
2013-1-5,36,26,15,31,21,14,92,83,74,30.18,30.05,29.93,10,10,9,28,12,33,0.00,2,,225
2013-1-6,24,17,10,16,12,6,88,80,71,30.32,30.23,30.04,10,10,8,29,11,35,0.00,2,,267
2013-1-7,38,29,20,29,22,15,85,72,59,30.22,30.09,30.02,10,10,10,22,11,29,0.00,0,,200
2013-1-8,41,30,18,32,26,18,100,85,70,30.06,29.98,29.88,10,10,9,18,10,23,0.00,0,,168
2013-1-9,40,32,23,32,28,23,92,81,70,30.45,30.33,30.08,10,10,10,21,9,26,0.00,0,,227
2013-1-10,40,34,28,36,30,25,100,77,54,30.41,30.05,29.74,10,6,0,20,11,25,0.08,5,Fog-Rain,128
2013-1-11,50,40,33,45,40,34,100,96,74,29.74,29.59,29.48,10,4,0,20,7,26,0.03,4,Fog,159
2013-1-12,50,33,15,41,16,7,89,77,65,30.11,29.95,29.55,10,10,9,30,17,38,0.00,6,,286
2013-1-13,16,11,6,7,4,0,83,72,61,30.35,30.17,30.03,10,10,10,20,12,25,T,4,,297
2013-1-14,27,16,5,13,7,1,84,73,53,30.50,30.44,30.36,10,10,10,14,5,,0.00,0,,230
2013-1-15,32,21,10,15,11,6,84,66,47,30.40,30.29,30.09,10,10,10,15,8,20,0.00,0,,193
2013-1-16,44,32,20,34,24,10,89,76,62,30.21,29.99,29.85,10,10,10,22,15,28,T,4,,273
2013-1-17,32,22,12,20,15,7,88,73,58,30.48,30.40,30.23,10,10,10,15,7,21,0.00,2,,296
2013-1-18,52,38,23,34,28,19,88,68,48,30.34,30.03,29.87,10,10,10,29,15,38,0.00,0,,209
2013-1-19,50,32,13,34,27,4,92,72,52,30.26,29.94,29.81,10,10,10,36,17,44,0.00,2,,270
2013-1-20,14,10,6,8,4,0,88,77,66,30.43,30.36,30.28,10,8,2,28,14,35,T,6,Snow,302
2013-1-21,7,1,-5,-1,-7,-13,83,73,62,30.46,30.39,30.31,10,10,8,28,16,33,0.00,1,,295
2013-1-22,13,5,-4,3,-3,-7,79,68,57,30.48,30.41,30.34,10,10,10,14,6,16,0.00,4,,264
2013-1-23,28,16,4,14,5,-6,73,63,53,30.56,30.30,30.21,10,10,10,29,15,35,0.00,3,,279
2013-1-24,20,11,1,6,-5,-10,68,54,40,30.67,30.51,30.24,10,10,10,17,12,23,0.00,1,,105
2013-1-25,35,22,8,20,10,1,73,62,51,30.33,30.16,30.06,10,10,10,29,14,33,0.00,3,,278
2013-1-26,32,18,3,14,6,-2,86,63,39,30.41,30.31,30.21,10,10,10,21,10,28,0.00,2,,125
2013-1-27,33,31,28,34,29,15,100,77,53,30.18,29.92,29.74,10,3,0,22,12,28,0.28,8,Fog-Rain,137
2013-1-28,45,38,31,45,36,32,100,100,100,29.94,29.77,29.60,4,1,0,22,8,26,0.30,8,Fog-Rain-Thunderstorm,104
2013-1-29,55,44,33,54,39,30,100,95,89,29.64,29.57,29.50,10,6,0,22,13,28,0.06,8,Fog-Rain-Snow-Thunderstorm,312
2013-1-30,33,23,12,29,19,6,100,87,73,29.86,29.61,29.46,10,3,0,36,26,45,0.03,7,Fog-Snow,329
2013-1-31,13,6,-2,7,-2,-9,83,76,68,30.40,30.08,29.81,10,7,1,35,22,39,T,6,Snow,299